Het weer levert geen direct gevaar op.    Er zijn geen waarschuwingen afgegeven.








webcam  webcam


webcam 2   webcam 2


Onweer radar Meer informatie blitzortung!


Regen radar Meer informatie rain snow radar


Bezoek onze andere website:

Template documentation
and downloads

And another site

weerstation wsnoordbergum

weerstationlembeke



METAR rapporten vliegvelden

   
EHAM - Amsterdam
Gewijzigd: 05-06-2020 21:25
Nearby Showers, Licht bewolkt  
Nearby Showers, Licht bewolkt  
   Wind: WZW 22.2 km/h
Wind: WZW 22.2 km/h
Temperatuur: 11°C
Dauwpunt: 5°C
Vochtigheid: 67%
Barometer: 995 hPa
Bewolking: Licht bewolkt
Zicht: meer dan 10 km
Bewolking: Licht bewolkt 2700 ft,
Licht bewolkt 4600 ft
EHAM 051925Z 25012KT 9999 VCSH FEW027TCU FEW046 11/05 Q0995 NOSIG
EHRD - Rotterdam
Gewijzigd: 05-06-2020 21:25
Gedeeltelijk bewolkt  
Gedeeltelijk bewolkt  
   Wind: WZW 14.8 km/h
Wind: WZW 14.8 km/h
Temperatuur: 11°C
Dauwpunt: 6°C
Vochtigheid: 72%
Barometer: 996 hPa
Bewolking: Gedeeltelijk bewolkt
Zicht: meer dan 10 km
Bewolking: Gedeeltelijk bewolkt
EHRD 051925Z AUTO 25008KT 9999 NSC 11/06 Q0996 TEMPO 7000 SHRA FEW020CB
EHLW - Leeuwarden
Gewijzigd: 05-06-2020 21:25
Gedeeltelijk bewolkt  
Gedeeltelijk bewolkt  
   Wind: Westen 18.5 km/h
Wind: Westen 18.5 km/h
Temperatuur: 10°C
Voelt als: 8°C
Dauwpunt: 5°C
Vochtigheid: 71%
Barometer: 992 hPa
Bewolking: Gedeeltelijk bewolkt
Zicht: meer dan 10 km
Bewolking: Licht bewolkt 2800 ft,
Gedeeltelijk bewolkt 4700 ft
EHLW 051925Z AUTO 27010KT 9999 FEW028 SCT047 10/05 Q0992 BLU
EHGG - Groningen
Gewijzigd: 05-06-2020 21:25
Grotendeels bewolkt  
Grotendeels bewolkt  
   Wind: WZW 13 km/h
Wind: WZW 13 km/h
Temperatuur: 9°C
Voelt als: 7°C
Dauwpunt: 6°C
Vochtigheid: 82%
Barometer: 992 hPa
Bewolking: Grotendeels bewolkt
Zicht: meer dan 10 km
Bewolking: Gedeeltelijk bewolkt 2500 ft,
Gedeeltelijk bewolkt 2900 ft,
Grotendeels bewolkt 4500 ft
EHGG 051925Z AUTO 25007KT 9999 SCT025 SCT029 BKN045 09/06 Q0992 NOSIG
  

Script ontwikkeld door  Saratoga-weather.org Aangepast voor de template door  Weerstation Leuven

U vindt ons ook hier:

Het Weer Aktueel

European Weather Network

WeatherCloud

Weather Underground

AWEKAS

HAMweather, WeatherForYou, PWS Weather

Apparatuur in gebruik:

Weerstation
Davis VP2

Weerprogramma
Meteobridge

Weercomputer
Asus WL -330N3G

Webleverancier
Hostnet

Davis VP2

Meteobridge

Asus WL -330N3G

Hostnet